createdAt,value
2018-09-27T00:01:59.931Z,74.80
2018-09-27T00:04:33.008Z,73.90
2018-09-27T00:07:04.912Z,74.70
2018-09-27T00:09:37.259Z,74.50
2018-09-27T00:12:09.101Z,75.30
2018-09-27T00:14:41.111Z,74.50
2018-09-27T00:17:12.966Z,74.50
2018-09-27T00:19:45.051Z,76.10
2018-09-27T00:22:18.668Z,74.50
2018-09-27T00:24:50.600Z,75.00
2018-09-27T00:27:22.513Z,75.30
2018-09-27T00:29:54.774Z,74.40
2018-09-27T00:32:27.836Z,75.40
2018-09-27T00:35:00.035Z,74.10
2018-09-27T00:37:32.078Z,74.50
2018-09-27T00:40:04.307Z,74.20
2018-09-27T00:42:36.535Z,74.10
2018-09-27T00:45:08.674Z,74.30
2018-09-27T00:47:40.425Z,74.10
2018-09-27T00:50:12.337Z,73.60
2018-09-27T00:52:44.746Z,73.60
2018-09-27T00:55:16.513Z,73.30
2018-09-27T00:57:48.400Z,73.50
2018-09-27T01:00:20.640Z,73.90
2018-09-27T01:02:52.737Z,74.80
2018-09-27T01:05:25.055Z,74.60
2018-09-27T01:07:56.810Z,74.80
2018-09-27T01:10:29.094Z,74.30
2018-09-27T01:13:00.928Z,74.60
2018-09-27T01:15:33.232Z,74.40
2018-09-27T01:18:05.887Z,74.90
2018-09-27T01:20:37.797Z,74.70
2018-09-27T01:23:09.700Z,75.00
2018-09-27T01:25:42.149Z,75.60
2018-09-27T01:28:14.800Z,76.60
2018-09-27T01:30:46.671Z,76.40
2018-09-27T01:33:18.342Z,76.30
2018-09-27T01:35:50.750Z,76.50
2018-09-27T01:38:22.570Z,76.20
2018-09-27T01:40:54.818Z,76.00
2018-09-27T01:43:27.645Z,75.90
2018-09-27T01:45:59.600Z,76.40
2018-09-27T01:48:31.654Z,77.10
2018-09-27T01:51:03.681Z,76.50
2018-09-27T01:53:35.727Z,76.50
2018-09-27T01:56:07.965Z,76.90
2018-09-27T01:58:39.833Z,75.90
2018-09-27T02:01:11.748Z,76.00
2018-09-27T02:03:43.781Z,76.00
2018-09-27T02:06:16.768Z,76.30
2018-09-27T02:08:48.558Z,76.40
2018-09-27T02:11:20.684Z,77.10
2018-09-27T02:13:52.603Z,76.30
2018-09-27T02:16:24.437Z,75.80
2018-09-27T02:18:56.399Z,76.20
2018-09-27T02:21:28.701Z,76.10
2018-09-27T02:24:00.801Z,76.40
2018-09-27T02:26:32.607Z,76.30
2018-09-27T02:29:04.690Z,76.60
2018-09-27T02:31:36.776Z,77.30
2018-09-27T02:34:08.750Z,76.50
2018-09-27T02:36:41.300Z,76.80
2018-09-27T02:39:13.421Z,77.00
2018-09-27T02:41:45.612Z,77.30
2018-09-27T02:44:18.100Z,76.90
2018-09-27T02:46:49.984Z,76.70
2018-09-27T02:49:21.713Z,76.10
2018-09-27T02:51:53.961Z,76.80
2018-09-27T02:54:25.528Z,76.90
2018-09-27T02:56:57.232Z,77.40
2018-09-27T02:59:29.115Z,77.70
2018-09-27T03:02:01.538Z,78.20
2018-09-27T03:04:33.339Z,78.00
2018-09-27T03:07:05.560Z,79.00
2018-09-27T03:09:37.686Z,78.80
2018-09-27T03:12:10.300Z,78.60
2018-09-27T03:14:42.343Z,78.50
2018-09-27T03:17:14.216Z,78.10
2018-09-27T03:19:45.878Z,77.80
2018-09-27T03:22:17.961Z,79.00
2018-09-27T03:24:50.885Z,77.70
2018-09-27T03:27:23.008Z,77.70
2018-09-27T03:29:55.003Z,77.60
2018-09-27T03:32:27.152Z,77.40
2018-09-27T03:34:59.211Z,77.40
2018-09-27T03:37:31.149Z,77.90
2018-09-27T03:40:03.567Z,78.50
2018-09-27T03:42:35.669Z,79.00
2018-09-27T03:45:08.135Z,78.70
2018-09-27T03:47:40.446Z,78.10
2018-09-27T03:50:12.570Z,78.50
2018-09-27T03:52:44.730Z,78.80
2018-09-27T03:55:17.303Z,78.80
2018-09-27T03:57:49.666Z,78.80
2018-09-27T04:00:22.043Z,78.50
2018-09-27T04:02:54.077Z,78.10
2018-09-27T04:05:26.033Z,78.40
2018-09-27T04:07:57.997Z,78.20
2018-09-27T04:10:30.036Z,78.40
2018-09-27T04:13:02.554Z,78.30
2018-09-27T04:15:34.787Z,78.10
2018-09-27T04:18:07.642Z,78.70
2018-09-27T04:20:55.625Z,79.30
2018-09-27T04:23:27.759Z,78.70
2018-09-27T04:26:00.189Z,79.90
2018-09-27T04:28:33.188Z,79.60
2018-09-27T04:31:05.033Z,79.20
2018-09-27T04:33:37.041Z,78.90
2018-09-27T04:36:09.062Z,79.50
2018-09-27T04:38:41.310Z,78.20
2018-09-27T04:41:13.453Z,78.40
2018-09-27T04:43:45.726Z,79.70
2018-09-27T04:46:18.080Z,79.20
2018-09-27T04:48:50.039Z,79.00
2018-09-27T04:51:22.200Z,80.40
2018-09-27T04:53:54.321Z,79.40
2018-09-27T04:56:26.879Z,78.60
2018-09-27T04:58:59.132Z,78.40
2018-09-27T05:01:31.405Z,78.40
2018-09-27T05:04:04.497Z,78.30
2018-09-27T05:06:36.995Z,78.60
2018-09-27T05:09:10.491Z,79.40
2018-09-27T05:11:44.083Z,77.60
2018-09-27T05:14:15.778Z,77.20
2018-09-27T05:16:47.946Z,77.10
2018-09-27T05:19:20.577Z,78.00
2018-09-27T05:21:52.893Z,76.80
2018-09-27T05:24:24.957Z,76.80
2018-09-27T05:26:57.235Z,77.10
2018-09-27T05:29:29.313Z,77.20
2018-09-27T05:32:01.059Z,77.40
2018-09-27T05:34:33.102Z,76.30
2018-09-27T05:37:05.371Z,75.40
2018-09-27T05:39:37.539Z,75.60
2018-09-27T05:42:09.590Z,74.60
2018-09-27T05:44:41.783Z,74.40
2018-09-27T05:47:13.754Z,74.60
2018-09-27T05:49:45.593Z,72.80
2018-09-27T05:52:17.814Z,71.90
2018-09-27T05:54:50.157Z,71.20
2018-09-27T05:57:25.214Z,69.70
2018-09-27T05:59:57.669Z,66.40
2018-09-27T06:02:30.071Z,66.50
2018-09-27T06:05:02.347Z,66.20
2018-09-27T06:07:34.107Z,65.10
2018-09-27T06:10:06.601Z,64.70
2018-09-27T06:12:38.810Z,62.20
2018-09-27T06:15:10.908Z,62.50
2018-09-27T06:17:43.399Z,61.50
2018-09-27T06:20:16.031Z,60.50
2018-09-27T06:22:48.582Z,60.50
2018-09-27T06:25:20.371Z,59.00
2018-09-27T06:27:52.663Z,58.20
2018-09-27T06:30:24.654Z,58.00
2018-09-27T06:32:57.943Z,57.60
2018-09-27T06:35:30.098Z,57.40
2018-09-27T06:38:02.368Z,55.80
2018-09-27T06:40:33.997Z,56.20
2018-09-27T06:43:05.964Z,54.00
2018-09-27T06:45:38.410Z,54.20
2018-09-27T06:48:10.881Z,55.00
2018-09-27T06:50:42.915Z,54.50
2018-09-27T06:53:15.415Z,54.50
2018-09-27T06:55:47.650Z,53.30
2018-09-27T06:58:19.869Z,54.30
2018-09-27T07:00:52.139Z,52.60
2018-09-27T07:03:24.886Z,51.20
2018-09-27T07:05:57.029Z,50.20
2018-09-27T07:08:28.996Z,51.40
2018-09-27T07:11:01.115Z,51.10
2018-09-27T07:13:32.934Z,52.20
2018-09-27T07:16:05.093Z,50.90
2018-09-27T07:18:46.158Z,50.20
2018-09-27T07:21:18.537Z,49.70
2018-09-27T07:23:50.794Z,49.40
2018-09-27T07:26:23.252Z,48.20
2018-09-27T07:28:55.510Z,48.50
2018-09-27T07:31:33.975Z,45.80
2018-09-27T07:34:05.981Z,46.50
2018-09-27T07:36:37.997Z,46.90
2018-09-27T07:39:12.490Z,46.60
2018-09-27T07:41:45.378Z,45.10
2018-09-27T07:44:17.900Z,43.70
2018-09-27T07:46:50.388Z,43.20
2018-09-27T07:49:22.887Z,43.60
2018-09-27T07:51:54.853Z,44.20
2018-09-27T07:54:27.164Z,44.80
2018-09-27T07:56:59.594Z,44.30
2018-09-27T07:59:32.718Z,44.80
2018-09-27T08:02:05.468Z,44.10
2018-09-27T08:04:37.924Z,43.50
2018-09-27T08:07:10.776Z,43.40
2018-09-27T08:09:43.328Z,42.70
2018-09-27T08:12:15.603Z,43.10
2018-09-27T08:14:48.093Z,42.00
2018-09-27T08:17:20.740Z,42.10
2018-09-27T08:19:53.641Z,40.60
2018-09-27T08:22:25.977Z,40.40
2018-09-27T08:24:58.129Z,40.50
2018-09-27T08:27:30.773Z,40.40
2018-09-27T08:30:03.028Z,40.80
2018-09-27T08:32:35.145Z,40.30
2018-09-27T08:35:07.414Z,40.10
2018-09-27T08:37:39.391Z,38.90
2018-09-27T08:40:11.364Z,39.10
2018-09-27T08:42:43.556Z,39.20
2018-09-27T08:45:16.212Z,38.40
2018-09-27T08:47:48.008Z,38.90
2018-09-27T08:50:20.452Z,38.80
2018-09-27T08:52:52.906Z,38.70
2018-09-27T08:55:25.297Z,39.80
2018-09-27T08:57:57.574Z,38.00
2018-09-27T09:00:30.196Z,38.40
2018-09-27T09:03:02.339Z,38.50
2018-09-27T09:05:34.403Z,37.10
2018-09-27T09:08:06.718Z,37.30
2018-09-27T09:10:39.817Z,38.90
2018-09-27T09:13:14.300Z,39.40
2018-09-27T09:15:46.353Z,39.60
2018-09-27T09:18:18.366Z,37.60
2018-09-27T09:20:51.143Z,38.10
2018-09-27T09:23:23.581Z,36.40
2018-09-27T09:25:55.892Z,36.20
2018-09-27T09:28:27.596Z,36.40
2018-09-27T09:30:59.604Z,36.60
2018-09-27T09:33:31.358Z,36.90
2018-09-27T09:36:04.100Z,37.60
2018-09-27T09:38:36.275Z,35.20
2018-09-27T09:41:08.410Z,34.50
2018-09-27T09:43:40.057Z,34.30
2018-09-27T09:46:12.326Z,33.80
2018-09-27T09:48:44.435Z,33.80
2018-09-27T09:51:17.302Z,33.90
2018-09-27T09:53:49.564Z,33.70
2018-09-27T09:56:22.039Z,33.70
2018-09-27T09:58:54.273Z,33.10
2018-09-27T10:01:25.790Z,33.40
2018-09-27T10:03:57.794Z,32.30
2018-09-27T10:06:30.033Z,32.30
2018-09-27T10:09:02.278Z,32.60
2018-09-27T10:11:35.241Z,31.20
2018-09-27T10:14:07.654Z,28.40
2018-09-27T10:16:40.821Z,29.60
2018-09-27T10:19:12.907Z,31.00
2018-09-27T10:21:45.067Z,30.90
2018-09-27T10:24:17.499Z,30.10
2018-09-27T10:26:49.747Z,28.90
2018-09-27T10:29:21.927Z,28.90
2018-09-27T10:31:54.851Z,30.40
2018-09-27T10:34:27.112Z,29.80
2018-09-27T10:36:59.390Z,30.00
2018-09-27T10:39:32.831Z,31.10
2018-09-27T10:42:04.753Z,29.70
2018-09-27T10:44:36.903Z,27.60
2018-09-27T10:47:09.307Z,28.90
2018-09-27T10:49:42.285Z,29.10
2018-09-27T10:52:14.179Z,28.10
2018-09-27T10:54:46.168Z,29.00
2018-09-27T10:57:19.428Z,29.60
2018-09-27T10:59:51.672Z,28.90
2018-09-27T11:02:23.833Z,28.70
2018-09-27T11:04:56.269Z,28.10
2018-09-27T11:07:38.234Z,28.00
2018-09-27T11:10:14.875Z,27.60
2018-09-27T11:12:59.370Z,27.30
2018-09-27T11:15:41.300Z,26.40
2018-09-27T11:18:24.708Z,28.20
2018-09-27T11:21:05.208Z,28.10
2018-09-27T11:23:37.560Z,28.30
2018-09-27T11:26:13.670Z,28.30
2018-09-27T11:28:55.988Z,28.60
2018-09-27T11:31:34.518Z,26.80
2018-09-27T11:34:09.588Z,26.40
2018-09-27T11:36:41.852Z,26.30
2018-09-27T11:39:14.437Z,25.70
2018-09-27T11:41:46.887Z,26.20
2018-09-27T11:44:18.992Z,25.80
2018-09-27T11:46:51.390Z,26.40
2018-09-27T11:49:22.968Z,26.40
2018-09-27T11:51:55.245Z,26.20
2018-09-27T11:54:28.205Z,27.70
2018-09-27T11:57:00.414Z,27.80
2018-09-27T11:59:32.871Z,27.20
2018-09-27T12:02:05.332Z,26.80
2018-09-27T12:04:37.516Z,25.90
2018-09-27T12:07:09.224Z,25.40
2018-09-27T12:09:41.436Z,25.70
2018-09-27T12:12:13.885Z,26.20
2018-09-27T12:14:46.773Z,25.70
2018-09-27T12:17:20.147Z,25.70
2018-09-27T12:19:52.574Z,27.00
2018-09-27T12:22:24.893Z,24.50
2018-09-27T12:24:57.326Z,24.90
2018-09-27T12:27:29.877Z,26.60
2018-09-27T12:30:02.301Z,26.90
2018-09-27T12:32:39.892Z,28.40
2018-09-27T12:35:22.759Z,26.20
2018-09-27T12:37:54.951Z,27.00
2018-09-27T12:40:27.286Z,27.10
2018-09-27T12:43:01.943Z,27.10
2018-09-27T12:45:44.061Z,26.70
2018-09-27T12:48:16.726Z,26.30
2018-09-27T12:50:49.043Z,26.40
2018-09-27T12:53:21.549Z,26.40
2018-09-27T12:55:58.151Z,26.10
2018-09-27T12:58:46.396Z,26.50
2018-09-27T13:01:20.384Z,26.50
2018-09-27T13:03:52.568Z,25.80
2018-09-27T13:06:24.781Z,26.70
2018-09-27T13:08:57.414Z,23.10
2018-09-27T13:11:29.531Z,24.10
2018-09-27T13:14:01.347Z,23.10
2018-09-27T13:16:33.188Z,23.70
2018-09-27T13:19:05.211Z,23.90
2018-09-27T13:21:37.702Z,24.70
2018-09-27T13:24:09.734Z,24.40
2018-09-27T13:26:41.898Z,23.60
2018-09-27T13:29:13.983Z,24.40
2018-09-27T13:31:46.954Z,24.40
2018-09-27T13:34:18.765Z,23.90
2018-09-27T13:36:50.673Z,23.90
2018-09-27T13:39:22.797Z,24.10
2018-09-27T13:41:54.830Z,24.50
2018-09-27T13:44:27.233Z,24.60
2018-09-27T13:46:59.532Z,24.50
2018-09-27T13:49:31.816Z,25.60
2018-09-27T13:52:03.672Z,25.60
2018-09-27T13:54:36.015Z,25.60
2018-09-27T13:57:08.372Z,25.50
2018-09-27T13:59:41.107Z,25.70
2018-09-27T14:02:13.565Z,25.70
2018-09-27T14:04:45.913Z,26.00
2018-09-27T14:07:17.968Z,25.80
2018-09-27T14:09:49.700Z,25.90
2018-09-27T14:12:21.745Z,25.80
2018-09-27T14:14:53.961Z,25.50
2018-09-27T14:17:26.060Z,26.40
2018-09-27T14:19:58.454Z,26.30
2018-09-27T14:22:30.478Z,26.20
2018-09-27T14:25:02.729Z,26.40
2018-09-27T14:27:36.845Z,26.00
2018-09-27T14:30:08.929Z,26.10
2018-09-27T14:32:41.556Z,26.10
2018-09-27T14:35:13.867Z,26.30
2018-09-27T14:37:46.327Z,26.40
2018-09-27T14:40:18.457Z,26.40
2018-09-27T14:42:50.878Z,26.70
2018-09-27T14:45:23.923Z,26.00
2018-09-27T14:47:57.279Z,25.70
2018-09-27T14:50:29.779Z,25.30
2018-09-27T14:53:01.848Z,24.80
2018-09-27T14:55:33.918Z,24.40
2018-09-27T14:58:06.230Z,24.00
2018-09-27T15:00:38.176Z,24.30
2018-09-27T15:08:47.973Z,24.20
2018-09-27T15:11:20.171Z,24.80
2018-09-27T15:13:52.703Z,25.40
2018-09-27T15:16:25.072Z,25.80
2018-09-27T15:18:56.906Z,26.00
2018-09-27T15:21:29.892Z,26.50
2018-09-27T15:24:03.105Z,26.80
2018-09-27T15:26:35.254Z,27.30
2018-09-27T15:29:07.376Z,27.90
2018-09-27T15:31:39.895Z,28.10
2018-09-27T15:34:12.411Z,28.20
2018-09-27T15:36:44.516Z,28.30
2018-09-27T15:39:16.834Z,29.00
2018-09-27T15:41:49.700Z,29.60
2018-09-27T15:44:22.180Z,30.00
2018-09-27T15:46:54.814Z,30.70
2018-09-27T15:49:27.554Z,31.40
2018-09-27T15:51:59.898Z,31.80
2018-09-27T15:54:31.970Z,31.90
2018-09-27T15:57:05.303Z,31.90
2018-09-27T15:59:37.854Z,32.60
2018-09-27T16:02:10.756Z,33.60
2018-09-27T16:04:43.044Z,33.80
2018-09-27T16:07:15.134Z,34.40
2018-09-27T16:09:47.647Z,34.90
2018-09-27T16:12:19.643Z,35.50
2018-09-27T16:14:52.330Z,36.10
2018-09-27T16:17:24.846Z,36.50
2018-09-27T16:19:57.215Z,37.00
2018-09-27T16:22:29.651Z,37.50
2018-09-27T16:25:02.182Z,37.80
2018-09-27T16:27:35.153Z,38.20
2018-09-27T16:30:08.293Z,38.70
2018-09-27T16:32:41.173Z,40.50
2018-09-27T16:35:14.239Z,40.40
2018-09-27T16:37:47.385Z,41.70
2018-09-27T16:40:20.593Z,42.00
2018-09-27T16:42:53.101Z,42.60
2018-09-27T16:45:25.962Z,44.70
2018-09-27T16:47:57.954Z,43.90
2018-09-27T16:50:31.177Z,44.00
2018-09-27T16:53:04.930Z,44.60
2018-09-27T16:55:37.829Z,44.50
2018-09-27T16:58:10.601Z,44.50
2018-09-27T17:00:43.926Z,45.30
2018-09-27T17:03:16.605Z,45.90
2018-09-27T17:05:49.263Z,46.10
2018-09-27T17:08:21.422Z,47.50
2018-09-27T17:10:54.029Z,48.20
2018-09-27T17:13:27.106Z,48.30
2018-09-27T17:15:59.810Z,48.40
2018-09-27T17:18:32.543Z,48.60
2018-09-27T17:21:04.966Z,49.20
2018-09-27T17:23:38.157Z,49.70
2018-09-27T17:26:10.513Z,50.10
2018-09-27T17:28:43.260Z,49.80
2018-09-27T17:31:15.832Z,49.60
2018-09-27T17:33:48.967Z,51.10
2018-09-27T17:36:21.700Z,51.90
2018-09-27T17:38:54.453Z,51.60
2018-09-27T17:41:27.079Z,51.10
2018-09-27T17:43:59.964Z,51.20
2018-09-27T17:46:32.367Z,52.60
2018-09-27T17:49:05.840Z,53.00
2018-09-27T17:51:38.122Z,52.70
2018-09-27T17:54:10.977Z,52.20
2018-09-27T17:56:43.486Z,52.40
2018-09-27T17:59:16.322Z,52.70
2018-09-27T18:01:48.425Z,52.90
2018-09-27T18:04:21.489Z,53.30
2018-09-27T18:06:53.970Z,53.60
2018-09-27T18:09:27.290Z,54.00
2018-09-27T18:12:00.808Z,54.20
2018-09-27T18:14:33.365Z,54.60
2018-09-27T18:17:06.740Z,55.00
2018-09-27T18:19:39.928Z,56.30
2018-09-27T18:22:12.625Z,55.90
2018-09-27T18:24:44.702Z,56.40
2018-09-27T18:27:18.142Z,57.30
2018-09-27T18:29:50.697Z,58.20
2018-09-27T18:32:23.863Z,58.60
2018-09-27T18:34:56.494Z,58.50
2018-09-27T18:37:29.043Z,58.20
2018-09-27T18:40:01.350Z,58.40
2018-09-27T18:42:33.823Z,58.60
2018-09-27T18:45:06.634Z,58.50
2018-09-27T18:47:38.815Z,58.50
2018-09-27T18:50:12.296Z,58.30
2018-09-27T18:52:44.706Z,58.40
2018-09-27T18:55:16.890Z,58.60
2018-09-27T18:57:48.660Z,59.00
2018-09-27T19:00:20.487Z,59.60
2018-09-27T19:02:52.785Z,59.80
2018-09-27T19:05:26.279Z,60.10
2018-09-27T19:07:58.874Z,60.00
2018-09-27T19:10:32.037Z,59.90
2018-09-27T19:13:04.415Z,59.90
2018-09-27T19:15:36.610Z,60.20
2018-09-27T19:18:10.472Z,60.00
2018-09-27T19:20:42.765Z,60.20
2018-09-27T19:23:15.434Z,60.60
2018-09-27T19:25:48.077Z,61.30
2018-09-27T19:28:20.882Z,61.70
2018-09-27T19:30:54.542Z,62.50
2018-09-27T19:33:26.885Z,62.80
2018-09-27T19:36:00.076Z,62.60
2018-09-27T19:38:32.545Z,62.10
2018-09-27T19:41:05.267Z,62.40
2018-09-27T19:43:37.580Z,63.10
2018-09-27T19:46:09.622Z,62.70
2018-09-27T19:48:42.005Z,62.80
2018-09-27T19:51:15.201Z,62.80
2018-09-27T19:53:47.395Z,62.80
2018-09-27T19:56:20.129Z,63.60
2018-09-27T19:58:52.776Z,63.50
2018-09-27T20:01:25.503Z,63.90
2018-09-27T20:03:57.881Z,64.80
2018-09-27T20:06:30.488Z,64.80
2018-09-27T20:09:02.628Z,65.50
2018-09-27T20:11:34.836Z,64.40
2018-09-27T20:14:07.247Z,64.30
2018-09-27T20:16:40.426Z,64.70
2018-09-27T20:19:12.295Z,65.00
2018-09-27T20:21:44.146Z,65.10
2018-09-27T20:24:16.261Z,64.60
2018-09-27T20:26:48.689Z,63.50
2018-09-27T20:29:20.996Z,64.20
2018-09-27T20:31:53.610Z,64.40
2018-09-27T20:34:26.215Z,64.80
2018-09-27T20:36:58.846Z,64.60
2018-09-27T20:39:30.975Z,64.60
2018-09-27T20:42:04.740Z,64.80
2018-09-27T20:44:36.930Z,65.40
2018-09-27T20:47:09.304Z,64.90
2018-09-27T20:49:41.361Z,65.30
2018-09-27T20:52:13.756Z,65.60
2018-09-27T20:54:45.837Z,65.90
2018-09-27T20:57:17.894Z,65.00
2018-09-27T20:59:50.463Z,64.70
2018-09-27T21:02:23.016Z,65.30
2018-09-27T21:04:55.499Z,65.70
2018-09-27T21:07:27.405Z,65.60
2018-09-27T21:09:59.607Z,65.50
2018-09-27T21:12:31.657Z,65.80
2018-09-27T21:15:03.992Z,66.40
2018-09-27T21:17:36.183Z,66.60
2018-09-27T21:20:08.427Z,66.70
2018-09-27T21:22:40.424Z,66.60
2018-09-27T21:25:12.590Z,66.40
2018-09-27T21:27:44.531Z,66.00
2018-09-27T21:30:16.520Z,66.20
2018-09-27T21:32:48.186Z,66.20
2018-09-27T21:35:19.967Z,66.50
2018-09-27T21:37:52.136Z,66.90
2018-09-27T21:40:24.017Z,66.30
2018-09-27T21:42:56.569Z,65.90
2018-09-27T21:45:28.646Z,66.20
2018-09-27T21:48:00.657Z,66.70
2018-09-27T21:50:33.073Z,66.60
2018-09-27T21:53:05.173Z,66.50
2018-09-27T21:55:36.906Z,66.40
2018-09-27T21:58:09.234Z,66.90
2018-09-27T22:00:41.130Z,67.00
2018-09-27T22:03:13.250Z,66.70
2018-09-27T22:05:45.796Z,67.50
2018-09-27T22:08:18.455Z,67.60
2018-09-27T22:10:50.627Z,67.60
2018-09-27T22:13:23.378Z,68.00
2018-09-27T22:15:55.276Z,67.20
2018-09-27T22:18:27.308Z,67.50
2018-09-27T22:20:59.660Z,67.40
2018-09-27T22:23:31.789Z,68.00
2018-09-27T22:26:03.685Z,69.00
2018-09-27T22:28:35.807Z,68.50
2018-09-27T22:31:08.353Z,68.10
2018-09-27T22:33:40.591Z,68.20
2018-09-27T22:36:12.383Z,67.90
2018-09-27T22:38:44.434Z,68.50
2018-09-27T22:41:17.228Z,68.30
2018-09-27T22:43:49.384Z,68.00
2018-09-27T22:46:21.223Z,67.70
2018-09-27T22:48:53.041Z,67.80
2018-09-27T22:51:25.156Z,68.10
2018-09-27T22:53:57.275Z,67.90
2018-09-27T22:56:29.102Z,67.90
2018-09-27T22:59:01.276Z,67.80
2018-09-27T23:01:33.362Z,67.80
2018-09-27T23:04:05.292Z,67.70
2018-09-27T23:06:37.941Z,67.60
2018-09-27T23:09:10.546Z,68.50
2018-09-27T23:11:43.265Z,68.50
2018-09-27T23:14:15.241Z,68.60
2018-09-27T23:16:48.103Z,68.90
2018-09-27T23:19:21.614Z,69.20
2018-09-27T23:21:54.137Z,69.40
2018-09-27T23:24:26.002Z,69.50
2018-09-27T23:26:58.299Z,69.90
2018-09-27T23:29:30.353Z,70.10
2018-09-27T23:32:03.442Z,70.20
2018-09-27T23:34:35.092Z,70.00
2018-09-27T23:37:07.692Z,70.60
2018-09-27T23:39:39.650Z,70.60
2018-09-27T23:42:11.602Z,70.30
2018-09-27T23:44:43.506Z,70.60
2018-09-27T23:47:15.282Z,70.90
2018-09-27T23:49:47.341Z,70.80
2018-09-27T23:52:19.629Z,70.50
2018-09-27T23:54:52.687Z,70.30
2018-09-27T23:57:24.837Z,70.30
2018-09-27T23:59:57.514Z,70.20
